sensor_id;sensor_type;location;lat;lon;timestamp;temperature;humidity
67572;SHT31;54397;47.506;19.158;2024-02-21T00:01:27;10.56;70.16
67572;SHT31;54397;47.506;19.158;2024-02-21T00:04:49;10.26;70.94
67572;SHT31;54397;47.506;19.158;2024-02-21T00:08:18;10.50;69.94
67572;SHT31;54397;47.506;19.158;2024-02-21T00:11:39;10.60;69.39
67572;SHT31;54397;47.506;19.158;2024-02-21T00:15:04;10.63;68.82
67572;SHT31;54397;47.506;19.158;2024-02-21T00:18:25;10.33;69.99
67572;SHT31;54397;47.506;19.158;2024-02-21T00:21:50;10.50;69.21
67572;SHT31;54397;47.506;19.158;2024-02-21T00:25:12;10.12;70.56
67572;SHT31;54397;47.506;19.158;2024-02-21T00:28:36;10.36;69.94
67572;SHT31;54397;47.506;19.158;2024-02-21T00:31:57;10.42;69.52
67572;SHT31;54397;47.506;19.158;2024-02-21T00:35:21;10.61;69.12
67572;SHT31;54397;47.506;19.158;2024-02-21T00:38:45;10.42;69.69
67572;SHT31;54397;47.506;19.158;2024-02-21T00:42:07;10.19;69.88
67572;SHT31;54397;47.506;19.158;2024-02-21T00:45:29;10.41;69.22
67572;SHT31;54397;47.506;19.158;2024-02-21T00:48:51;10.71;68.68
67572;SHT31;54397;47.506;19.158;2024-02-21T00:52:15;10.67;68.86
67572;SHT31;54397;47.506;19.158;2024-02-21T00:55:37;10.74;68.59
67572;SHT31;54397;47.506;19.158;2024-02-21T00:58:58;10.83;67.93
67572;SHT31;54397;47.506;19.158;2024-02-21T01:02:20;10.85;67.55
67572;SHT31;54397;47.506;19.158;2024-02-21T01:05:42;10.87;67.58
67572;SHT31;54397;47.506;19.158;2024-02-21T01:09:04;10.79;67.44
67572;SHT31;54397;47.506;19.158;2024-02-21T01:12:25;10.81;67.20
67572;SHT31;54397;47.506;19.158;2024-02-21T01:15:47;10.08;68.44
67572;SHT31;54397;47.506;19.158;2024-02-21T01:19:09;10.33;68.12
67572;SHT31;54397;47.506;19.158;2024-02-21T01:22:36;10.21;67.36
67572;SHT31;54397;47.506;19.158;2024-02-21T01:25:58;10.15;67.96
67572;SHT31;54397;47.506;19.158;2024-02-21T01:29:23;9.98;67.84
67572;SHT31;54397;47.506;19.158;2024-02-21T01:32:44;9.88;68.75
67572;SHT31;54397;47.506;19.158;2024-02-21T01:36:06;9.99;68.47
67572;SHT31;54397;47.506;19.158;2024-02-21T01:39:28;9.81;68.90
67572;SHT31;54397;47.506;19.158;2024-02-21T01:42:55;10.04;68.08
67572;SHT31;54397;47.506;19.158;2024-02-21T01:46:19;9.60;68.89
67572;SHT31;54397;47.506;19.158;2024-02-21T01:49:44;9.66;68.84
67572;SHT31;54397;47.506;19.158;2024-02-21T01:53:07;9.78;69.24
67572;SHT31;54397;47.506;19.158;2024-02-21T01:56:34;9.61;68.76
67572;SHT31;54397;47.506;19.158;2024-02-21T01:59:58;8.98;71.06
67572;SHT31;54397;47.506;19.158;2024-02-21T02:03:22;8.98;71.66
67572;SHT31;54397;47.506;19.158;2024-02-21T02:06:46;9.43;70.47
67572;SHT31;54397;47.506;19.158;2024-02-21T02:10:10;9.53;69.99
67572;SHT31;54397;47.506;19.158;2024-02-21T02:13:35;9.46;70.35
67572;SHT31;54397;47.506;19.158;2024-02-21T02:16:57;9.57;70.01
67572;SHT31;54397;47.506;19.158;2024-02-21T02:20:21;9.23;71.10
67572;SHT31;54397;47.506;19.158;2024-02-21T02:23:43;9.58;70.44
67572;SHT31;54397;47.506;19.158;2024-02-21T02:27:07;8.98;71.52
67572;SHT31;54397;47.506;19.158;2024-02-21T02:30:34;8.85;72.91
67572;SHT31;54397;47.506;19.158;2024-02-21T02:33:57;9.39;71.16
67572;SHT31;54397;47.506;19.158;2024-02-21T02:37:19;9.48;70.46
67572;SHT31;54397;47.506;19.158;2024-02-21T02:40:43;9.48;70.16
67572;SHT31;54397;47.506;19.158;2024-02-21T02:44:05;9.81;69.32
67572;SHT31;54397;47.506;19.158;2024-02-21T02:47:27;9.88;68.97
67572;SHT31;54397;47.506;19.158;2024-02-21T02:50:50;9.87;68.91
67572;SHT31;54397;47.506;19.158;2024-02-21T02:54:11;10.01;68.73
67572;SHT31;54397;47.506;19.158;2024-02-21T02:57:33;9.80;68.85
67572;SHT31;54397;47.506;19.158;2024-02-21T03:00:55;9.87;68.58
67572;SHT31;54397;47.506;19.158;2024-02-21T03:04:17;9.94;68.37
67572;SHT31;54397;47.506;19.158;2024-02-21T03:07:38;10.16;67.86
67572;SHT31;54397;47.506;19.158;2024-02-21T03:11:00;10.06;67.61
67572;SHT31;54397;47.506;19.158;2024-02-21T03:14:22;10.23;66.91
67572;SHT31;54397;47.506;19.158;2024-02-21T03:17:46;10.15;66.96
67572;SHT31;54397;47.506;19.158;2024-02-21T03:21:08;10.18;66.87
67572;SHT31;54397;47.506;19.158;2024-02-21T03:24:31;9.83;67.83
67572;SHT31;54397;47.506;19.158;2024-02-21T03:27:52;9.36;68.85
67572;SHT31;54397;47.506;19.158;2024-02-21T03:31:17;9.08;69.69
67572;SHT31;54397;47.506;19.158;2024-02-21T03:34:38;9.23;69.80
67572;SHT31;54397;47.506;19.158;2024-02-21T03:38:02;8.99;70.21
67572;SHT31;54397;47.506;19.158;2024-02-21T03:41:24;8.78;71.44
67572;SHT31;54397;47.506;19.158;2024-02-21T03:44:46;9.19;70.53
67572;SHT31;54397;47.506;19.158;2024-02-21T03:48:07;9.44;69.02
67572;SHT31;54397;47.506;19.158;2024-02-21T03:51:31;9.74;68.01
67572;SHT31;54397;47.506;19.158;2024-02-21T03:54:54;9.80;68.09
67572;SHT31;54397;47.506;19.158;2024-02-21T03:58:16;9.70;68.06
67572;SHT31;54397;47.506;19.158;2024-02-21T04:01:38;9.84;67.62
67572;SHT31;54397;47.506;19.158;2024-02-21T04:05:02;9.57;67.85
67572;SHT31;54397;47.506;19.158;2024-02-21T04:08:24;9.26;68.64
67572;SHT31;54397;47.506;19.158;2024-02-21T04:11:45;8.78;71.49
67572;SHT31;54397;47.506;19.158;2024-02-21T04:15:08;9.09;70.29
67572;SHT31;54397;47.506;19.158;2024-02-21T04:18:32;8.61;71.51
67572;SHT31;54397;47.506;19.158;2024-02-21T04:21:56;8.63;71.93
67572;SHT31;54397;47.506;19.158;2024-02-21T04:25:18;8.72;70.89
67572;SHT31;54397;47.506;19.158;2024-02-21T04:28:40;8.22;72.78
67572;SHT31;54397;47.506;19.158;2024-02-21T04:32:02;8.29;72.94
67572;SHT31;54397;47.506;19.158;2024-02-21T04:35:26;8.10;73.57
67572;SHT31;54397;47.506;19.158;2024-02-21T04:38:53;8.37;72.92
67572;SHT31;54397;47.506;19.158;2024-02-21T04:42:15;8.22;72.66
67572;SHT31;54397;47.506;19.158;2024-02-21T04:45:37;8.77;71.32
67572;SHT31;54397;47.506;19.158;2024-02-21T04:48:58;8.28;72.22
67572;SHT31;54397;47.506;19.158;2024-02-21T04:52:23;8.77;71.41
67572;SHT31;54397;47.506;19.158;2024-02-21T04:55:47;8.95;70.80
67572;SHT31;54397;47.506;19.158;2024-02-21T04:59:08;9.04;70.09
67572;SHT31;54397;47.506;19.158;2024-02-21T05:02:30;9.19;69.71
67572;SHT31;54397;47.506;19.158;2024-02-21T05:05:52;8.97;70.52
67572;SHT31;54397;47.506;19.158;2024-02-21T05:09:14;9.04;70.20
67572;SHT31;54397;47.506;19.158;2024-02-21T05:12:35;9.01;70.50
67572;SHT31;54397;47.506;19.158;2024-02-21T05:15:59;8.72;71.56
67572;SHT31;54397;47.506;19.158;2024-02-21T05:19:25;8.79;71.47
67572;SHT31;54397;47.506;19.158;2024-02-21T05:22:47;8.91;71.21
67572;SHT31;54397;47.506;19.158;2024-02-21T05:26:09;8.98;71.18
67572;SHT31;54397;47.506;19.158;2024-02-21T05:29:33;8.97;71.24
67572;SHT31;54397;47.506;19.158;2024-02-21T05:32:57;9.15;70.53
67572;SHT31;54397;47.506;19.158;2024-02-21T05:36:22;9.22;70.83
67572;SHT31;54397;47.506;19.158;2024-02-21T05:39:46;9.36;70.05
67572;SHT31;54397;47.506;19.158;2024-02-21T05:43:10;9.29;70.50
67572;SHT31;54397;47.506;19.158;2024-02-21T05:46:32;9.04;71.39
67572;SHT31;54397;47.506;19.158;2024-02-21T05:49:54;9.20;71.09
67572;SHT31;54397;47.506;19.158;2024-02-21T05:53:18;9.22;70.90
67572;SHT31;54397;47.506;19.158;2024-02-21T05:56:46;9.42;70.15
67572;SHT31;54397;47.506;19.158;2024-02-21T06:00:08;9.44;70.23
67572;SHT31;54397;47.506;19.158;2024-02-21T06:03:30;9.47;69.96
67572;SHT31;54397;47.506;19.158;2024-02-21T06:06:54;9.36;70.45
67572;SHT31;54397;47.506;19.158;2024-02-21T06:10:16;9.29;70.78
67572;SHT31;54397;47.506;19.158;2024-02-21T06:13:40;9.22;70.84
67572;SHT31;54397;47.506;19.158;2024-02-21T06:17:02;9.42;70.40
67572;SHT31;54397;47.506;19.158;2024-02-21T06:20:24;9.02;70.55
67572;SHT31;54397;47.506;19.158;2024-02-21T06:23:46;8.89;71.81
67572;SHT31;54397;47.506;19.158;2024-02-21T06:27:08;8.95;71.15
67572;SHT31;54397;47.506;19.158;2024-02-21T06:30:31;9.05;71.39
67572;SHT31;54397;47.506;19.158;2024-02-21T06:33:55;9.26;70.58
67572;SHT31;54397;47.506;19.158;2024-02-21T06:37:17;9.46;69.87
67572;SHT31;54397;47.506;19.158;2024-02-21T06:40:39;9.48;69.63
67572;SHT31;54397;47.506;19.158;2024-02-21T06:44:04;9.22;69.98
67572;SHT31;54397;47.506;19.158;2024-02-21T06:47:28;9.25;70.64
67572;SHT31;54397;47.506;19.158;2024-02-21T06:50:56;9.57;69.75
67572;SHT31;54397;47.506;19.158;2024-02-21T06:54:20;9.48;69.59
67572;SHT31;54397;47.506;19.158;2024-02-21T06:57:44;9.51;69.29
67572;SHT31;54397;47.506;19.158;2024-02-21T07:01:06;9.56;69.34
67572;SHT31;54397;47.506;19.158;2024-02-21T07:04:28;9.64;69.04
67572;SHT31;54397;47.506;19.158;2024-02-21T07:07:50;10.22;77.14
67572;SHT31;54397;47.506;19.158;2024-02-21T07:11:14;10.63;75.69
67572;SHT31;54397;47.506;19.158;2024-02-21T07:14:36;11.18;75.30
67572;SHT31;54397;47.506;19.158;2024-02-21T07:17:58;11.51;72.65
67572;SHT31;54397;47.506;19.158;2024-02-21T07:21:22;11.77;70.70
67572;SHT31;54397;47.506;19.158;2024-02-21T07:24:47;11.77;63.92
67572;SHT31;54397;47.506;19.158;2024-02-21T07:28:11;11.61;63.54
67572;SHT31;54397;47.506;19.158;2024-02-21T07:31:43;11.48;63.46
67572;SHT31;54397;47.506;19.158;2024-02-21T07:35:08;11.34;63.52
67572;SHT31;54397;47.506;19.158;2024-02-21T07:38:36;11.17;63.83
67572;SHT31;54397;47.506;19.158;2024-02-21T07:41:57;11.46;63.47
67572;SHT31;54397;47.506;19.158;2024-02-21T07:45:22;12.00;62.37
67572;SHT31;54397;47.506;19.158;2024-02-21T07:48:46;12.18;61.55
67572;SHT31;54397;47.506;19.158;2024-02-21T07:52:08;12.45;61.00
67572;SHT31;54397;47.506;19.158;2024-02-21T07:55:30;12.88;59.46
67572;SHT31;54397;47.506;19.158;2024-02-21T07:58:52;12.83;58.60
67572;SHT31;54397;47.506;19.158;2024-02-21T08:02:16;12.90;58.34
67572;SHT31;54397;47.506;19.158;2024-02-21T08:05:41;12.83;59.22
67572;SHT31;54397;47.506;19.158;2024-02-21T08:09:02;13.11;58.42
67572;SHT31;54397;47.506;19.158;2024-02-21T08:12:26;13.04;58.59
67572;SHT31;54397;47.506;19.158;2024-02-21T08:15:51;13.34;57.89
67572;SHT31;54397;47.506;19.158;2024-02-21T08:19:14;12.58;59.57
67572;SHT31;54397;47.506;19.158;2024-02-21T08:22:39;12.99;59.46
67572;SHT31;54397;47.506;19.158;2024-02-21T08:26:04;13.33;57.60
67572;SHT31;54397;47.506;19.158;2024-02-21T08:29:28;12.70;58.50
67572;SHT31;54397;47.506;19.158;2024-02-21T08:32:50;12.48;58.05
67572;SHT31;54397;47.506;19.158;2024-02-21T08:36:18;12.55;59.74
67572;SHT31;54397;47.506;19.158;2024-02-21T08:39:41;13.26;58.74
67572;SHT31;54397;47.506;19.158;2024-02-21T08:43:05;12.75;57.55
67572;SHT31;54397;47.506;19.158;2024-02-21T08:46:27;13.17;57.42
67572;SHT31;54397;47.506;19.158;2024-02-21T08:49:52;13.14;58.25
67572;SHT31;54397;47.506;19.158;2024-02-21T08:53:14;13.26;57.78
67572;SHT31;54397;47.506;19.158;2024-02-21T08:56:36;13.68;56.91
67572;SHT31;54397;47.506;19.158;2024-02-21T08:59:57;13.62;56.75
67572;SHT31;54397;47.506;19.158;2024-02-21T09:03:22;13.83;56.45
67572;SHT31;54397;47.506;19.158;2024-02-21T09:06:44;13.90;55.52
67572;SHT31;54397;47.506;19.158;2024-02-21T09:10:11;13.44;56.27
67572;SHT31;54397;47.506;19.158;2024-02-21T09:13:35;12.16;58.55
67572;SHT31;54397;47.506;19.158;2024-02-21T09:16:57;12.80;58.36
67572;SHT31;54397;47.506;19.158;2024-02-21T09:20:19;13.06;57.15
67572;SHT31;54397;47.506;19.158;2024-02-21T09:23:43;12.97;57.50
67572;SHT31;54397;47.506;19.158;2024-02-21T09:27:05;13.64;55.63
67572;SHT31;54397;47.506;19.158;2024-02-21T09:30:27;13.98;54.30
67572;SHT31;54397;47.506;19.158;2024-02-21T09:33:49;14.44;53.68
67572;SHT31;54397;47.506;19.158;2024-02-21T09:37:13;14.84;53.11
67572;SHT31;54397;47.506;19.158;2024-02-21T09:40:40;15.44;52.27
67572;SHT31;54397;47.506;19.158;2024-02-21T09:44:04;15.49;50.42
67572;SHT31;54397;47.506;19.158;2024-02-21T09:47:48;15.70;50.58
67572;SHT31;54397;47.506;19.158;2024-02-21T09:51:13;15.20;50.27
67572;SHT31;54397;47.506;19.158;2024-02-21T09:54:37;14.88;51.77
67572;SHT31;54397;47.506;19.158;2024-02-21T09:58:07;15.36;51.65
67572;SHT31;54397;47.506;19.158;2024-02-21T10:01:28;15.83;49.71
67572;SHT31;54397;47.506;19.158;2024-02-21T10:04:56;16.18;48.82
67572;SHT31;54397;47.506;19.158;2024-02-21T10:08:21;15.90;48.55
67572;SHT31;54397;47.506;19.158;2024-02-21T10:11:42;14.96;50.76
67572;SHT31;54397;47.506;19.158;2024-02-21T10:15:08;15.90;50.17
67572;SHT31;54397;47.506;19.158;2024-02-21T10:18:32;16.60;47.89
67572;SHT31;54397;47.506;19.158;2024-02-21T10:22:03;16.49;46.79
67572;SHT31;54397;47.506;19.158;2024-02-21T10:25:29;16.80;46.76
67572;SHT31;54397;47.506;19.158;2024-02-21T10:28:52;16.02;47.43
67572;SHT31;54397;47.506;19.158;2024-02-21T10:32:16;16.87;46.86
67572;SHT31;54397;47.506;19.158;2024-02-21T10:35:40;17.73;44.94
67572;SHT31;54397;47.506;19.158;2024-02-21T10:39:01;18.66;42.85
67572;SHT31;54397;47.506;19.158;2024-02-21T10:42:29;19.37;41.38
67572;SHT31;54397;47.506;19.158;2024-02-21T10:46:00;19.59;40.81
67572;SHT31;54397;47.506;19.158;2024-02-21T10:49:26;18.85;41.03
67572;SHT31;54397;47.506;19.158;2024-02-21T10:53:02;17.82;43.84
67572;SHT31;54397;47.506;19.158;2024-02-21T10:56:31;16.76;45.54
67572;SHT31;54397;47.506;19.158;2024-02-21T10:59:58;16.30;45.93
67572;SHT31;54397;47.506;19.158;2024-02-21T11:03:20;16.11;47.26
67572;SHT31;54397;47.506;19.158;2024-02-21T11:06:43;16.11;47.86
67572;SHT31;54397;47.506;19.158;2024-02-21T11:10:05;15.87;48.87
67572;SHT31;54397;47.506;19.158;2024-02-21T11:13:35;15.81;48.16
67572;SHT31;54397;47.506;19.158;2024-02-21T11:16:57;15.77;48.97
67572;SHT31;54397;47.506;19.158;2024-02-21T11:20:20;15.78;49.37
67572;SHT31;54397;47.506;19.158;2024-02-21T11:23:42;15.58;50.16
67572;SHT31;54397;47.506;19.158;2024-02-21T11:30:32;14.45;51.13
67572;SHT31;54397;47.506;19.158;2024-02-21T11:33:54;14.98;50.92
67572;SHT31;54397;47.506;19.158;2024-02-21T11:37:18;15.88;48.67
67572;SHT31;54397;47.506;19.158;2024-02-21T11:40:44;16.16;48.19
67572;SHT31;54397;47.506;19.158;2024-02-21T11:44:11;15.93;48.69
67572;SHT31;54397;47.506;19.158;2024-02-21T11:47:35;15.64;48.46
67572;SHT31;54397;47.506;19.158;2024-02-21T11:51:00;15.13;50.54
67572;SHT31;54397;47.506;19.158;2024-02-21T11:54:22;15.18;50.63
67572;SHT31;54397;47.506;19.158;2024-02-21T11:57:43;15.70;49.52
67572;SHT31;54397;47.506;19.158;2024-02-21T12:01:07;15.75;48.59
67572;SHT31;54397;47.506;19.158;2024-02-21T12:04:31;16.55;47.92
67572;SHT31;54397;47.506;19.158;2024-02-21T12:07:59;17.49;45.56
67572;SHT31;54397;47.506;19.158;2024-02-21T12:11:22;18.04;43.94
67572;SHT31;54397;47.506;19.158;2024-02-21T12:14:44;17.15;44.39
67572;SHT31;54397;47.506;19.158;2024-02-21T12:18:05;16.74;45.19
67572;SHT31;54397;47.506;19.158;2024-02-21T12:21:33;16.11;45.19
67572;SHT31;54397;47.506;19.158;2024-02-21T12:25:03;15.18;47.65
67572;SHT31;54397;47.506;19.158;2024-02-21T12:28:24;14.82;49.11
67572;SHT31;54397;47.506;19.158;2024-02-21T12:31:46;14.92;49.61
67572;SHT31;54397;47.506;19.158;2024-02-21T12:35:13;14.63;49.94
67572;SHT31;54397;47.506;19.158;2024-02-21T12:38:36;14.68;50.36
67572;SHT31;54397;47.506;19.158;2024-02-21T12:42:00;14.71;49.21
67572;SHT31;54397;47.506;19.158;2024-02-21T12:45:24;14.75;50.00
67572;SHT31;54397;47.506;19.158;2024-02-21T12:48:46;14.87;49.70
67572;SHT31;54397;47.506;19.158;2024-02-21T12:52:08;14.74;49.39
67572;SHT31;54397;47.506;19.158;2024-02-21T12:55:32;14.51;50.17
67572;SHT31;54397;47.506;19.158;2024-02-21T12:58:54;14.60;49.93
67572;SHT31;54397;47.506;19.158;2024-02-21T13:02:18;14.48;50.56
67572;SHT31;54397;47.506;19.158;2024-02-21T13:05:43;14.57;50.09
67572;SHT31;54397;47.506;19.158;2024-02-21T13:09:06;14.48;49.91
67572;SHT31;54397;47.506;19.158;2024-02-21T13:12:32;14.58;48.84
67572;SHT31;54397;47.506;19.158;2024-02-21T13:15:54;14.52;49.63
67572;SHT31;54397;47.506;19.158;2024-02-21T13:19:16;14.56;49.93
67572;SHT31;54397;47.506;19.158;2024-02-21T13:22:39;14.52;49.98
67572;SHT31;54397;47.506;19.158;2024-02-21T13:26:01;14.19;48.79
67572;SHT31;54397;47.506;19.158;2024-02-21T13:29:23;13.99;50.58
67572;SHT31;54397;47.506;19.158;2024-02-21T13:32:50;13.79;51.08
67572;SHT31;54397;47.506;19.158;2024-02-21T13:36:14;14.03;50.50
67572;SHT31;54397;47.506;19.158;2024-02-21T13:39:39;13.98;51.03
67572;SHT31;54397;47.506;19.158;2024-02-21T13:43:01;13.90;51.13
67572;SHT31;54397;47.506;19.158;2024-02-21T13:46:24;14.41;50.35
67572;SHT31;54397;47.506;19.158;2024-02-21T13:49:46;14.34;50.35
67572;SHT31;54397;47.506;19.158;2024-02-21T13:53:11;13.69;50.09
67572;SHT31;54397;47.506;19.158;2024-02-21T13:56:35;14.12;51.12
67572;SHT31;54397;47.506;19.158;2024-02-21T13:59:56;14.20;50.08
67572;SHT31;54397;47.506;19.158;2024-02-21T14:03:18;14.45;49.34
67572;SHT31;54397;47.506;19.158;2024-02-21T14:06:43;14.85;50.04
67572;SHT31;54397;47.506;19.158;2024-02-21T14:10:06;14.64;51.14
67572;SHT31;54397;47.506;19.158;2024-02-21T14:13:28;14.79;54.50
67572;SHT31;54397;47.506;19.158;2024-02-21T14:16:50;15.26;53.08
67572;SHT31;54397;47.506;19.158;2024-02-21T14:20:14;15.85;51.26
67572;SHT31;54397;47.506;19.158;2024-02-21T14:23:38;15.73;45.98
67572;SHT31;54397;47.506;19.158;2024-02-21T14:27:05;15.54;48.62
67572;SHT31;54397;47.506;19.158;2024-02-21T14:30:27;15.85;52.87
67572;SHT31;54397;47.506;19.158;2024-02-21T14:33:48;16.15;44.86
67572;SHT31;54397;47.506;19.158;2024-02-21T14:37:12;15.78;43.87
67572;SHT31;54397;47.506;19.158;2024-02-21T14:40:36;15.18;45.75
67572;SHT31;54397;47.506;19.158;2024-02-21T14:43:58;15.20;46.22
67572;SHT31;54397;47.506;19.158;2024-02-21T14:47:25;14.33;46.60
67572;SHT31;54397;47.506;19.158;2024-02-21T14:50:47;14.17;47.28
67572;SHT31;54397;47.506;19.158;2024-02-21T14:54:11;14.56;46.90
67572;SHT31;54397;47.506;19.158;2024-02-21T14:57:33;14.67;46.95
67572;SHT31;54397;47.506;19.158;2024-02-21T15:00:55;14.48;47.25
67572;SHT31;54397;47.506;19.158;2024-02-21T15:04:17;14.23;47.07
67572;SHT31;54397;47.506;19.158;2024-02-21T15:07:42;14.30;47.70
67572;SHT31;54397;47.506;19.158;2024-02-21T15:11:07;14.38;47.82
67572;SHT31;54397;47.506;19.158;2024-02-21T15:14:34;14.45;47.96
67572;SHT31;54397;47.506;19.158;2024-02-21T15:17:56;14.34;48.00
67572;SHT31;54397;47.506;19.158;2024-02-21T15:21:20;14.47;47.01
67572;SHT31;54397;47.506;19.158;2024-02-21T15:24:42;14.58;46.89
67572;SHT31;54397;47.506;19.158;2024-02-21T15:28:03;14.37;47.81
67572;SHT31;54397;47.506;19.158;2024-02-21T15:31:30;14.19;47.96
67572;SHT31;54397;47.506;19.158;2024-02-21T15:34:52;13.95;47.23
67572;SHT31;54397;47.506;19.158;2024-02-21T15:38:14;14.08;48.09
67572;SHT31;54397;47.506;19.158;2024-02-21T15:41:36;13.99;48.46
67572;SHT31;54397;47.506;19.158;2024-02-21T15:45:00;14.09;48.44
67572;SHT31;54397;47.506;19.158;2024-02-21T15:48:22;14.08;47.17
67572;SHT31;54397;47.506;19.158;2024-02-21T15:51:51;14.23;46.73
67572;SHT31;54397;47.506;19.158;2024-02-21T15:55:16;14.09;47.95
67572;SHT31;54397;47.506;19.158;2024-02-21T15:58:39;13.85;47.59
67572;SHT31;54397;47.506;19.158;2024-02-21T16:02:03;13.74;47.97
67572;SHT31;54397;47.506;19.158;2024-02-21T16:05:25;13.90;47.98
67572;SHT31;54397;47.506;19.158;2024-02-21T16:08:49;14.12;47.55
67572;SHT31;54397;47.506;19.158;2024-02-21T16:12:11;14.06;47.91
67572;SHT31;54397;47.506;19.158;2024-02-21T16:15:36;14.31;55.50
67572;SHT31;54397;47.506;19.158;2024-02-21T16:19:00;14.72;56.25
67572;SHT31;54397;47.506;19.158;2024-02-21T16:22:25;15.05;54.14
67572;SHT31;54397;47.506;19.158;2024-02-21T16:25:47;15.33;53.68
67572;SHT31;54397;47.506;19.158;2024-02-21T16:29:11;15.47;52.51
67572;SHT31;54397;47.506;19.158;2024-02-21T16:32:33;15.66;52.25
67572;SHT31;54397;47.506;19.158;2024-02-21T16:36:00;15.58;45.68
67572;SHT31;54397;47.506;19.158;2024-02-21T16:39:24;15.36;45.17
67572;SHT31;54397;47.506;19.158;2024-02-21T16:42:46;15.09;45.56
67572;SHT31;54397;47.506;19.158;2024-02-21T16:46:11;14.78;46.32
67572;SHT31;54397;47.506;19.158;2024-02-21T16:49:32;14.60;46.68
67572;SHT31;54397;47.506;19.158;2024-02-21T16:52:58;14.44;46.77
67572;SHT31;54397;47.506;19.158;2024-02-21T16:56:19;14.27;47.44
67572;SHT31;54397;47.506;19.158;2024-02-21T16:59:41;14.20;47.12
67572;SHT31;54397;47.506;19.158;2024-02-21T17:03:03;13.96;48.13
67572;SHT31;54397;47.506;19.158;2024-02-21T17:06:25;13.92;48.22
67572;SHT31;54397;47.506;19.158;2024-02-21T17:09:47;13.82;48.81
67572;SHT31;54397;47.506;19.158;2024-02-21T17:13:11;13.90;48.15
67572;SHT31;54397;47.506;19.158;2024-02-21T17:16:33;13.89;48.91
67572;SHT31;54397;47.506;19.158;2024-02-21T17:20:01;13.85;49.13
67572;SHT31;54397;47.506;19.158;2024-02-21T17:23:23;13.78;49.21
67572;SHT31;54397;47.506;19.158;2024-02-21T17:26:47;13.74;49.53
67572;SHT31;54397;47.506;19.158;2024-02-21T17:30:11;13.78;49.44
67572;SHT31;54397;47.506;19.158;2024-02-21T17:33:35;13.61;49.69
67572;SHT31;54397;47.506;19.158;2024-02-21T17:36:57;13.65;50.00
67572;SHT31;54397;47.506;19.158;2024-02-21T17:40:18;13.65;50.39
67572;SHT31;54397;47.506;19.158;2024-02-21T17:43:40;13.71;49.77
67572;SHT31;54397;47.506;19.158;2024-02-21T17:47:04;13.65;49.86
67572;SHT31;54397;47.506;19.158;2024-02-21T17:50:28;13.57;49.87
67572;SHT31;54397;47.506;19.158;2024-02-21T17:53:55;13.41;50.33
67572;SHT31;54397;47.506;19.158;2024-02-21T17:57:18;13.40;50.50
67572;SHT31;54397;47.506;19.158;2024-02-21T18:00:42;13.43;50.63
67572;SHT31;54397;47.506;19.158;2024-02-21T18:04:06;13.54;50.26
67572;SHT31;54397;47.506;19.158;2024-02-21T18:07:28;13.44;50.59
67572;SHT31;54397;47.506;19.158;2024-02-21T18:10:50;13.31;51.28
67572;SHT31;54397;47.506;19.158;2024-02-21T18:14:13;13.50;50.85
67572;SHT31;54397;47.506;19.158;2024-02-21T18:17:37;13.33;51.30
67572;SHT31;54397;47.506;19.158;2024-02-21T18:20:59;13.18;51.61
67572;SHT31;54397;47.506;19.158;2024-02-21T18:24:21;13.03;51.68
67572;SHT31;54397;47.506;19.158;2024-02-21T18:27:43;13.13;51.85
67572;SHT31;54397;47.506;19.158;2024-02-21T18:31:07;12.92;52.34
67572;SHT31;54397;47.506;19.158;2024-02-21T18:34:29;12.93;52.71
67572;SHT31;54397;47.506;19.158;2024-02-21T18:37:53;12.93;52.29
67572;SHT31;54397;47.506;19.158;2024-02-21T18:41:15;13.00;52.56
67572;SHT31;54397;47.506;19.158;2024-02-21T18:44:39;12.80;52.93
67572;SHT31;54397;47.506;19.158;2024-02-21T18:48:01;12.85;53.07
67572;SHT31;54397;47.506;19.158;2024-02-21T18:51:28;12.80;53.25
67572;SHT31;54397;47.506;19.158;2024-02-21T18:54:52;13.06;57.80
67572;SHT31;54397;47.506;19.158;2024-02-21T18:58:14;13.51;60.57
67572;SHT31;54397;47.506;19.158;2024-02-21T19:01:36;13.76;59.59
67572;SHT31;54397;47.506;19.158;2024-02-21T19:04:58;13.89;58.45
67572;SHT31;54397;47.506;19.158;2024-02-21T19:08:21;14.17;56.07
67572;SHT31;54397;47.506;19.158;2024-02-21T19:11:42;14.27;55.66
67572;SHT31;54397;47.506;19.158;2024-02-21T19:15:04;14.40;54.93
67572;SHT31;54397;47.506;19.158;2024-02-21T19:18:26;14.16;48.86
67572;SHT31;54397;47.506;19.158;2024-02-21T19:21:50;13.90;49.21
67572;SHT31;54397;47.506;19.158;2024-02-21T19:25:12;13.61;49.97
67572;SHT31;54397;47.506;19.158;2024-02-21T19:28:38;13.51;50.61
67572;SHT31;54397;47.506;19.158;2024-02-21T19:32:03;13.21;51.60
67572;SHT31;54397;47.506;19.158;2024-02-21T19:35:29;13.21;51.82
67572;SHT31;54397;47.506;19.158;2024-02-21T19:38:53;13.09;52.07
67572;SHT31;54397;47.506;19.158;2024-02-21T19:42:15;12.88;52.38
67572;SHT31;54397;47.506;19.158;2024-02-21T19:45:37;12.63;52.81
67572;SHT31;54397;47.506;19.158;2024-02-21T19:49:01;12.72;52.66
67572;SHT31;54397;47.506;19.158;2024-02-21T19:52:23;12.63;53.16
67572;SHT31;54397;47.506;19.158;2024-02-21T19:55:47;12.66;52.90
67572;SHT31;54397;47.506;19.158;2024-02-21T19:59:14;12.51;53.25
67572;SHT31;54397;47.506;19.158;2024-02-21T20:02:39;12.53;53.47
67572;SHT31;54397;47.506;19.158;2024-02-21T20:06:00;12.59;53.36
67572;SHT31;54397;47.506;19.158;2024-02-21T20:09:25;12.52;53.46
67572;SHT31;54397;47.506;19.158;2024-02-21T20:12:47;12.53;53.36
67572;SHT31;54397;47.506;19.158;2024-02-21T20:16:10;12.41;53.37
67572;SHT31;54397;47.506;19.158;2024-02-21T20:19:33;12.51;53.60
67572;SHT31;54397;47.506;19.158;2024-02-21T20:22:55;13.44;74.65
67572;SHT31;54397;47.506;19.158;2024-02-21T20:26:19;13.62;50.93
67572;SHT31;54397;47.506;19.158;2024-02-21T20:29:44;13.33;51.67
67572;SHT31;54397;47.506;19.158;2024-02-21T20:33:08;13.00;52.15
67572;SHT31;54397;47.506;19.158;2024-02-21T20:36:30;12.72;52.31
67572;SHT31;54397;47.506;19.158;2024-02-21T20:39:55;12.62;52.49
67572;SHT31;54397;47.506;19.158;2024-02-21T20:43:22;12.62;52.80
67572;SHT31;54397;47.506;19.158;2024-02-21T20:46:49;12.45;53.29
67572;SHT31;54397;47.506;19.158;2024-02-21T20:50:10;12.38;53.69
67572;SHT31;54397;47.506;19.158;2024-02-21T20:53:37;12.24;53.67
67572;SHT31;54397;47.506;19.158;2024-02-21T20:57:04;12.31;53.57
67572;SHT31;54397;47.506;19.158;2024-02-21T21:00:25;12.21;53.64
67572;SHT31;54397;47.506;19.158;2024-02-21T21:03:52;12.11;53.81
67572;SHT31;54397;47.506;19.158;2024-02-21T21:07:19;12.03;53.98
67572;SHT31;54397;47.506;19.158;2024-02-21T21:10:41;12.13;54.04
67572;SHT31;54397;47.506;19.158;2024-02-21T21:14:04;11.82;55.19